Honeoye, New York
Current Conditions -  °F | °C
As of 3:54 PM on Monday 24 Nov 2014 (Local Time) from KDSV Reporting Station
Clear Clear  
Wind Chill: 64°   Ceiling: Unl
Heat Index: 64°   Visibility: 10mi
Dew Point: 47°   Wind: 13mph
Humidity: 54%   Direction: 180°S
Pressure: 29.35"   Gusts: 22mph
Location:  42.79°N, 77.52°W
Report Text: KDSV 242054Z AUTO 18011G19KT 10SM CLR 18/08 A2935 RMK AO2 WSHFT 2009 RAB16E25 SLP946 P0000 60001 T01780083 51015
Loading
Personal Weather Stations






























Interactive Weather Map New forecast layout! Learn more

10-Day Weather Forecast

Advertisements
Track Severe Weather on mobile